Detall de PIREP

Printer-friendly versionPDF version

[2015/12/05 07:33:00]
Flight IATA:CT3127
Pilot Number:012
Company ICAO:CAT
Aircraft Type:DC3/A
PAX:0
Aircraft Registration:CARGO
Departing Airport: LEZG
Destination Airport: LFMP
Alternate Airport:LFBO
Online: VATSIM
Route:GRAUS G23 REBUL H110 BGR A27 KANIG
Flight Level:F100
No Slew and time accel
No pause
Crash detect
Detect pilot in Cockpit between each 30 and 45 minutes
07:33 Zero fuel Weight: 20227 Lbs, Fuel Weight: 1814 Lbs
07:33 VATSIM:LEZG 050700Z 15002KT 4000 BR NSC 05/04 Q1033
07:33 VATSIM:LFMP 050700Z AUTO 22005KT 9999 SCT039/// BKN092/// OVC140/// ///TCU 11/09 Q1033
07:33 Parking Brakes off
07:38 Take-off
07:38 Take off Weight: 22022 Lbs
07:38 Wind: 150º @ 002 Knots Heading: 305º
07:38 POS N41º 39´ 41´´ W001º 01´ 17´´
07:38 Gear Up: 107 Knots
07:48 TOC
07:48 Fuel Weight: 1656 Lb
07:53 Wind:300º@019 Knots Heading: 062º Ground Speed: 176 Knots Altitude 10587 ft
08:08 Wind:300º@019 Knots Heading: 082º Ground Speed: 181 Knots Altitude 10580 ft
08:23 Wind:293º@027 Knots Heading: 074º Ground Speed: 186 Knots Altitude 10593 ft
08:38 Wind:308º@013 Knots Heading: 076º Ground Speed: 175 Knots Altitude 10587 ft
08:53 Wind:308º@007 Knots Heading: 087º Ground Speed: 171 Knots Altitude 10620 ft
08:54 TOD
08:54 Fuel Weight: 902 Lb
08:55 TOC
08:55 Fuel Weight: 895 Lb
08:56 TOD
08:56 Fuel Weight: 888 Lb
09:08 Wind:286º@000 Knots Heading: 349º Ground Speed: 141 Knots Altitude 3330 ft
09:08 Flaps:1 at 140 Knots
09:08 Gear Down: 139 Knots
09:09 Flaps:2 at 101 Knots
09:11 Flaps:3 at 91 Knots
09:13 TouchDown:Rate -91 ft/min Speed: 55 Knots
09:13 VATSIM:LFMP 050900Z AUTO VRB02KT 9999 FEW046 BKN082 BKN150 11/10 Q1033
09:13 Land
09:13 Wind:000º@000 Knots
09:13 Heading: 322º
09:13 Flight Duration: 01:35
09:13 Landing Weight: 20986 Lbs
09:13 POS N42º 44´ 33´´ E002º 52´ 16´´
09:16 Parking brakes on
09:16 Block to Block Duration: 01:43
09:16 Final Fuel: 753 Lbls
09:16 Spent Fuel: 1060 Lbls
09:16 Flight Length: 263 NM
09:16 TOD Land Length: 40 NM

Exportar CSV

Powered by Drupal - Modified by Danger4k